Time;durP1;ratioP1;P1;durP2;ratioP2;P2;SDS_P1;SDS_P2;PMS_P1;PMS_P2;Temp;Humidity;BMP_temperature;BMP_pressure;BME280_temperature;BME280_humidity;BME280_pressure;Samples;Min_cycle;Max_cycle;Signal;HPM_P1;HPM_P2
2021/09/09 00:00:06;;;;;;;17.33;15.57;;;15.50;99.90;;;;;;5070785;28;20999;-66
2021/09/09 00:02:34;;;;;;;18.07;16.23;;;15.40;99.90;;;;;;5069828;28;20455;-66
2021/09/09 00:05:01;;;;;;;18.77;16.90;;;15.40;99.90;;;;;;5070447;28;20481;-66
2021/09/09 00:07:28;;;;;;;22.90;16.17;;;15.40;99.90;;;;;;5070575;28;20536;-67
2021/09/09 00:09:55;;;;;;;19.20;16.30;;;15.40;99.90;;;;;;5070271;28;20455;-66
2021/09/09 00:12:22;;;;;;;20.70;17.10;;;15.50;99.90;;;;;;5070149;28;20443;-66
2021/09/09 00:14:49;;;;;;;18.20;16.37;;;15.60;99.90;;;;;;5070530;28;20570;-66
2021/09/09 00:17:16;;;;;;;17.63;15.93;;;15.60;99.90;;;;;;5070556;28;20537;-66
2021/09/09 00:19:44;;;;;;;19.33;16.83;;;15.70;99.90;;;;;;5070311;28;20454;-66
2021/09/09 00:22:11;;;;;;;17.13;15.33;;;15.70;99.90;;;;;;5070011;28;20487;-67
2021/09/09 00:24:38;;;;;;;18.80;16.90;;;15.70;99.90;;;;;;5070361;28;20470;-66
2021/09/09 00:27:06;;;;;;;19.30;17.30;;;15.50;99.90;;;;;;5070130;28;20455;-66
2021/09/09 00:29:33;;;;;;;19.20;16.47;;;15.50;99.90;;;;;;5070419;28;20886;-67
2021/09/09 00:32:00;;;;;;;22.10;18.50;;;15.50;99.90;;;;;;5069653;28;20451;-67
2021/09/09 00:34:26;;;;;;;19.97;17.93;;;15.50;99.90;;;;;;5069980;28;20471;-65
2021/09/09 00:36:55;;;;;;;18.97;17.00;;;15.50;99.90;;;;;;5069925;28;20458;-67
2021/09/09 00:39:21;;;;;;;19.10;17.10;;;15.50;99.90;;;;;;5069701;28;20453;-66
2021/09/09 00:41:48;;;;;;;19.10;17.20;;;15.60;99.90;;;;;;5069429;28;21022;-66
2021/09/09 00:44:22;;;;;;;18.47;16.57;;;15.60;99.90;;;;;;5069502;28;20462;-66
2021/09/09 00:47:01;;;;;;;20.10;16.63;;;15.50;99.90;;;;;;5069974;28;20971;-66
2021/09/09 00:49:28;;;;;;;18.87;16.40;;;15.40;99.90;;;;;;5069738;28;20978;-66
2021/09/09 00:51:57;;;;;;;18.53;16.50;;;15.30;99.90;;;;;;5069709;28;20538;-65
2021/09/09 00:54:24;;;;;;;18.83;16.70;;;15.30;99.90;;;;;;5069891;28;20563;-66
2021/09/09 00:56:51;;;;;;;17.70;15.90;;;15.40;99.90;;;;;;5070070;28;20473;-66
2021/09/09 00:59:18;;;;;;;23.40;16.80;;;15.30;99.90;;;;;;5069875;28;20446;-66
2021/09/09 01:01:45;;;;;;;18.30;16.40;;;15.30;99.90;;;;;;5069055;28;20482;-65
2021/09/09 01:04:12;;;;;;;22.10;17.40;;;15.30;99.90;;;;;;5069552;28;20559;-65
2021/09/09 01:06:39;;;;;;;19.20;17.13;;;15.20;99.90;;;;;;5069455;28;20902;-65
2021/09/09 01:09:08;;;;;;;18.63;16.63;;;15.10;99.90;;;;;;5069838;28;20453;-65
2021/09/09 01:11:35;;;;;;;18.50;16.47;;;15.10;99.90;;;;;;5069076;28;20825;-65
2021/09/09 01:14:06;;;;;;;18.93;17.13;;;15.00;99.90;;;;;;5072007;28;20466;-65
2021/09/09 01:16:33;;;;;;;24.40;15.80;;;15.00;99.90;;;;;;5075111;28;20465;-66
2021/09/09 01:19:00;;;;;;;20.77;17.70;;;15.10;99.90;;;;;;5077898;28;20548;-66
2021/09/09 01:21:27;;;;;;;17.50;15.70;;;15.00;99.90;;;;;;5078349;28;20486;-65
2021/09/09 01:23:56;;;;;;;18.43;16.30;;;15.00;99.90;;;;;;5073912;28;20477;-65
2021/09/09 01:26:27;;;;;;;21.13;16.93;;;15.00;99.90;;;;;;5073371;28;20446;-65
2021/09/09 01:28:54;;;;;;;21.03;16.43;;;15.00;99.90;;;;;;5072964;28;20786;-65
2021/09/09 01:31:21;;;;;;;30.43;17.00;;;15.00;99.90;;;;;;5072897;28;20442;-65
2021/09/09 01:33:48;;;;;;;17.80;15.90;;;15.00;99.90;;;;;;5072924;28;20468;-65
2021/09/09 01:36:15;;;;;;;19.47;17.47;;;15.00;99.90;;;;;;5073258;28;20451;-65
2021/09/09 01:38:42;;;;;;;18.40;16.60;;;15.00;99.90;;;;;;5073305;28;20439;-65
2021/09/09 01:41:09;;;;;;;19.27;16.33;;;15.00;99.90;;;;;;5072629;28;20485;-65
2021/09/09 01:43:37;;;;;;;18.90;16.90;;;15.00;99.90;;;;;;5072552;28;20465;-65
2021/09/09 01:46:04;;;;;;;17.93;16.23;;;15.00;99.90;;;;;;5072413;28;20447;-65
2021/09/09 01:48:31;;;;;;;18.93;16.93;;;15.00;99.90;;;;;;5072891;28;20451;-66
2021/09/09 01:50:58;;;;;;;19.53;17.47;;;15.00;99.90;;;;;;5072557;28;20938;-65
2021/09/09 01:53:24;;;;;;;18.13;15.90;;;15.00;99.90;;;;;;5072260;28;20461;-66
2021/09/09 01:55:51;;;;;;;19.83;16.70;;;15.00;99.90;;;;;;5072710;28;20457;-65
2021/09/09 01:58:18;;;;;;;24.40;17.00;;;15.00;99.90;;;;;;5072275;28;20979;-65
2021/09/09 02:00:46;;;;;;;18.27;16.43;;;15.00;99.90;;;;;;5072458;28;20585;-65
2021/09/09 02:03:13;;;;;;;21.20;16.30;;;15.00;99.90;;;;;;5071873;28;20542;-66
2021/09/09 02:05:40;;;;;;;18.93;16.10;;;15.00;99.90;;;;;;5072376;28;20533;-65
2021/09/09 02:08:07;;;;;;;18.00;15.50;;;15.00;99.90;;;;;;5072280;28;20978;-65
2021/09/09 02:10:34;;;;;;;17.57;15.77;;;15.00;99.90;;;;;;5072213;28;21020;-66
2021/09/09 02:13:00;;;;;;;19.00;17.20;;;14.90;99.90;;;;;;5072114;28;20431;-65
2021/09/09 02:15:28;;;;;;;20.33;17.10;;;14.90;99.90;;;;;;5072010;28;20565;-65
2021/09/09 02:17:56;;;;;;;22.20;17.83;;;14.80;99.90;;;;;;5072432;28;20962;-66
2021/09/09 02:20:23;;;;;;;20.00;18.10;;;14.80;99.90;;;;;;5072216;28;20844;-65
2021/09/09 02:22:50;;;;;;;18.63;16.63;;;14.80;99.90;;;;;;5071713;28;21217;-65
2021/09/09 02:25:17;;;;;;;19.20;17.30;;;14.80;99.90;;;;;;5070714;28;20546;-66
2021/09/09 02:27:44;;;;;;;18.33;16.50;;;14.80;99.90;;;;;;5071926;28;20447;-65
2021/09/09 02:30:12;;;;;;;19.17;17.27;;;14.80;99.90;;;;;;5072135;28;20452;-65
2021/09/09 02:32:38;;;;;;;19.87;17.87;;;14.90;99.90;;;;;;5071445;28;20963;-66
2021/09/09 02:35:08;;;;;;;18.23;16.40;;;14.90;99.90;;;;;;5071928;28;20783;-65
2021/09/09 02:37:35;;;;;;;18.07;16.17;;;14.80;99.90;;;;;;5071670;28;20451;-65
2021/09/09 02:40:02;;;;;;;19.57;16.87;;;14.80;99.90;;;;;;5071616;28;20814;-65
2021/09/09 02:42:29;;;;;;;22.00;18.20;;;14.80;99.90;;;;;;5070889;28;20591;-65
2021/09/09 02:44:56;;;;;;;20.33;17.90;;;14.70;99.90;;;;;;5071810;28;20466;-66
2021/09/09 02:47:23;;;;;;;18.90;17.03;;;14.60;99.90;;;;;;5071710;28;20447;-65
2021/09/09 02:49:50;;;;;;;21.43;18.47;;;14.60;99.90;;;;;;5071618;28;20577;-65
2021/09/09 02:52:18;;;;;;;19.40;17.43;;;14.50;99.90;;;;;;5071315;28;20435;-65
2021/09/09 02:54:45;;;;;;;19.57;17.07;;;14.60;99.90;;;;;;5071250;28;20479;-65
2021/09/09 02:57:11;;;;;;;25.03;18.33;;;14.50;99.90;;;;;;5071419;28;20447;-65
2021/09/09 02:59:38;;;;;;;19.87;17.53;;;14.50;99.90;;;;;;5071109;28;20448;-65
2021/09/09 03:02:05;;;;;;;21.57;18.00;;;14.50;99.90;;;;;;5071405;28;20493;-66
2021/09/09 03:04:32;;;;;;;20.20;17.93;;;14.50;99.90;;;;;;5071143;28;20471;-66
2021/09/09 03:06:59;;;;;;;20.17;16.70;;;14.50;99.90;;;;;;5071498;28;20530;-66
2021/09/09 03:09:27;;;;;;;20.67;18.50;;;14.50;99.90;;;;;;5071028;28;20445;-66
2021/09/09 03:11:54;;;;;;;20.10;16.47;;;14.40;99.90;;;;;;5070914;28;20440;-66
2021/09/09 03:14:21;;;;;;;19.53;17.60;;;14.40;99.90;;;;;;5071213;28;21056;-66
2021/09/09 03:16:48;;;;;;;23.30;19.20;;;14.40;99.90;;;;;;5071332;28;20450;-66
2021/09/09 03:19:15;;;;;;;20.10;18.20;;;14.50;99.90;;;;;;5071081;28;20455;-66
2021/09/09 03:21:41;;;;;;;20.77;18.57;;;14.50;99.90;;;;;;5070366;28;20589;-66
2021/09/09 03:24:09;;;;;;;22.50;20.10;;;14.50;99.90;;;;;;5070807;28;20455;-66
2021/09/09 03:26:37;;;;;;;22.33;19.93;;;14.50;99.90;;;;;;5070653;28;20949;-66
2021/09/09 03:29:04;;;;;;;23.50;20.20;;;14.50;99.90;;;;;;5070998;28;20435;-66
2021/09/09 03:31:31;;;;;;;31.20;20.97;;;14.50;99.90;;;;;;5070790;28;20806;-65
2021/09/09 03:33:58;;;;;;;24.93;22.33;;;14.50;99.90;;;;;;5070574;28;20463;-65
2021/09/09 03:36:25;;;;;;;26.13;22.20;;;14.50;99.90;;;;;;5070850;28;20451;-65
2021/09/09 03:38:52;;;;;;;23.03;20.47;;;14.60;99.90;;;;;;5070761;28;20439;-65
2021/09/09 03:41:19;;;;;;;23.23;20.80;;;14.60;99.90;;;;;;5070799;28;20475;-65
2021/09/09 03:43:48;;;;;;;25.20;21.60;;;14.60;99.90;;;;;;5070231;28;21189;-65
2021/09/09 03:46:14;;;;;;;26.20;22.40;;;14.60;99.90;;;;;;5071007;28;20540;-65
2021/09/09 03:48:41;;;;;;;23.03;20.70;;;14.50;99.90;;;;;;5070738;28;20523;-65
2021/09/09 03:51:08;;;;;;;24.90;22.00;;;14.50;99.90;;;;;;5070674;28;20786;-65
2021/09/09 03:53:35;;;;;;;28.00;22.60;;;14.50;99.90;;;;;;5070600;28;20445;-65
2021/09/09 03:56:02;;;;;;;25.23;22.43;;;14.50;99.90;;;;;;5070461;28;20447;-65
2021/09/09 03:58:29;;;;;;;26.10;20.70;;;14.50;99.90;;;;;;5070984;28;20850;-65
2021/09/09 04:00:57;;;;;;;25.97;21.77;;;14.50;99.90;;;;;;5070629;28;20529;-65
2021/09/09 04:03:24;;;;;;;22.27;20.00;;;14.50;99.90;;;;;;5070448;28;20489;-65
2021/09/09 04:05:50;;;;;;;22.87;20.10;;;14.40;99.90;;;;;;5070535;28;20968;-65
2021/09/09 04:08:17;;;;;;;21.13;18.93;;;14.40;99.90;;;;;;5070728;28;20538;-65
2021/09/09 04:10:44;;;;;;;22.50;20.10;;;14.40;99.90;;;;;;5070798;28;20502;-65
2021/09/09 04:13:11;;;;;;;22.13;19.70;;;14.40;99.90;;;;;;5069903;28;20446;-65
2021/09/09 04:15:39;;;;;;;22.97;20.60;;;14.40;99.90;;;;;;5070352;28;20454;-65
2021/09/09 04:18:07;;;;;;;25.13;20.20;;;14.40;99.90;;;;;;5070146;28;20541;-65
2021/09/09 04:20:34;;;;;;;25.00;20.83;;;14.50;99.90;;;;;;5070177;28;20435;-65
2021/09/09 04:23:01;;;;;;;25.97;22.23;;;14.60;99.90;;;;;;5069836;28;20475;-65
2021/09/09 04:25:27;;;;;;;26.33;23.60;;;14.70;99.90;;;;;;5070128;28;20470;-65
2021/09/09 04:27:54;;;;;;;27.10;21.77;;;14.80;99.90;;;;;;5070303;28;20461;-65
2021/09/09 04:30:21;;;;;;;25.87;21.30;;;14.90;99.90;;;;;;5070382;28;20447;-67
2021/09/09 04:32:48;;;;;;;24.33;21.70;;;14.90;99.90;;;;;;5070064;28;20439;-66
2021/09/09 04:35:16;;;;;;;21.20;18.93;;;15.00;99.90;;;;;;5069994;28;20475;-67
2021/09/09 04:37:43;;;;;;;36.70;22.63;;;15.10;99.90;;;;;;5070514;28;20833;-67
2021/09/09 04:40:11;;;;;;;22.90;20.60;;;15.10;99.90;;;;;;5070224;28;20471;-65
2021/09/09 04:42:38;;;;;;;21.63;19.53;;;15.10;99.90;;;;;;5069901;28;20566;-66
2021/09/09 04:45:06;;;;;;;22.03;19.63;;;15.00;99.90;;;;;;5069723;28;20550;-66
2021/09/09 04:47:33;;;;;;;21.33;19.07;;;15.00;99.90;;;;;;5069942;28;20940;-67
2021/09/09 04:50:00;;;;;;;20.63;18.53;;;15.00;99.90;;;;;;5074373;28;20967;-66
2021/09/09 04:52:28;;;;;;;22.23;19.03;;;15.00;99.90;;;;;;5073410;28;20518;-65
2021/09/09 04:54:55;;;;;;;27.93;20.30;;;15.00;99.90;;;;;;5073841;28;20469;-65
2021/09/09 04:57:21;;;;;;;24.70;20.13;;;15.10;99.90;;;;;;5073558;28;20541;-65
2021/09/09 04:59:48;;;;;;;20.77;18.60;;;15.10;99.90;;;;;;5074098;28;20815;-65
2021/09/09 05:02:15;;;;;;;20.73;18.60;;;15.00;99.90;;;;;;5073353;28;20474;-65
2021/09/09 05:04:42;;;;;;;22.37;20.07;;;15.00;99.90;;;;;;5073584;28;21055;-67
2021/09/09 05:07:09;;;;;;;22.63;18.70;;;15.00;99.90;;;;;;5074003;28;20465;-67
2021/09/09 05:09:37;;;;;;;22.20;19.97;;;15.00;99.90;;;;;;5073503;28;20453;-67
2021/09/09 05:12:04;;;;;;;22.97;19.97;;;15.10;99.90;;;;;;5073064;28;20527;-68
2021/09/09 05:14:31;;;;;;;21.60;19.33;;;15.00;99.90;;;;;;5073422;28;20473;-65
2021/09/09 05:16:58;;;;;;;20.50;18.37;;;15.00;99.90;;;;;;5073723;28;20488;-65
2021/09/09 05:19:25;;;;;;;20.43;18.27;;;15.00;99.90;;;;;;5074071;28;20453;-65
2021/09/09 05:21:52;;;;;;;20.87;18.30;;;15.20;99.90;;;;;;5075267;28;20506;-65
2021/09/09 05:24:19;;;;;;;22.00;19.67;;;15.20;99.90;;;;;;5073997;28;20546;-66
2021/09/09 05:26:47;;;;;;;21.27;19.07;;;15.20;99.90;;;;;;5073568;28;20967;-65
2021/09/09 05:29:14;;;;;;;21.63;19.50;;;15.20;99.90;;;;;;5074084;28;20453;-65
2021/09/09 05:31:41;;;;;;;22.50;18.27;;;15.30;99.90;;;;;;5073194;28;20457;-65
2021/09/09 05:34:07;;;;;;;23.70;19.83;;;15.30;99.90;;;;;;5073244;28;20552;-65
2021/09/09 05:36:34;;;;;;;20.30;18.20;;;15.40;99.90;;;;;;5072993;28;20542;-66
2021/09/09 05:39:01;;;;;;;18.43;16.57;;;15.40;99.90;;;;;;5072815;28;20537;-65
2021/09/09 05:41:28;;;;;;;22.60;19.17;;;15.50;99.90;;;;;;5072518;28;20451;-65
2021/09/09 05:43:56;;;;;;;21.17;18.07;;;15.50;99.90;;;;;;5072749;28;20487;-65
2021/09/09 05:46:23;;;;;;;20.30;18.27;;;15.70;99.90;;;;;;5072967;28;20478;-65
2021/09/09 05:48:50;;;;;;;20.23;18.20;;;15.70;99.90;;;;;;5072721;28;20828;-66
2021/09/09 05:51:17;;;;;;;20.87;18.70;;;15.70;99.90;;;;;;5072732;28;20948;-65
2021/09/09 05:53:43;;;;;;;23.13;17.70;;;15.90;99.90;;;;;;5072272;28;20552;-65
2021/09/09 05:56:10;;;;;;;20.60;18.50;;;16.00;99.90;;;;;;5072759;28;20538;-65
2021/09/09 05:58:38;;;;;;;21.80;19.60;;;16.10;99.90;;;;;;5072373;28;20466;-66
2021/09/09 06:01:07;;;;;;;22.27;17.83;;;16.20;99.90;;;;;;5072724;28;20902;-65
2021/09/09 06:03:35;;;;;;;18.10;15.83;;;16.50;99.90;;;;;;5072148;28;20479;-65
2021/09/09 06:06:04;;;;;;;19.37;17.17;;;16.60;99.90;;;;;;5072149;28;20499;-65
2021/09/09 06:08:31;;;;;;;18.63;16.50;;;16.80;99.90;;;;;;5072439;28;20835;-65
2021/09/09 06:10:58;;;;;;;18.80;16.90;;;16.80;99.90;;;;;;5072123;28;20933;-67
2021/09/09 06:13:25;;;;;;;17.87;16.07;;;16.90;99.90;;;;;;5072166;28;20478;-67
2021/09/09 06:15:52;;;;;;;16.73;15.07;;;16.90;99.90;;;;;;5072443;28;20475;-71
2021/09/09 06:18:21;;;;;;;21.53;17.10;;;16.90;99.90;;;;;;5072368;28;20449;-73
2021/09/09 06:20:48;;;;;;;17.50;15.80;;;16.80;99.90;;;;;;5072207;28;20453;-66
2021/09/09 06:23:14;;;;;;;17.30;15.50;;;16.90;99.90;;;;;;5071512;28;21016;-66
2021/09/09 06:25:41;;;;;;;19.67;17.30;;;17.00;99.90;;;;;;5072078;28;20459;-65
2021/09/09 06:28:09;;;;;;;19.80;16.80;;;17.10;99.90;;;;;;5072151;28;20471;-63
2021/09/09 06:30:36;;;;;;;18.60;16.80;;;17.30;99.90;;;;;;5072245;28;20456;-65
2021/09/09 06:33:03;;;;;;;17.90;16.03;;;17.40;99.90;;;;;;5072425;28;20442;-64
2021/09/09 06:35:32;;;;;;;17.07;15.30;;;17.60;99.90;;;;;;5072302;28;20573;-64
2021/09/09 06:37:59;;;;;;;18.07;15.60;;;17.80;99.90;;;;;;5071847;28;20541;-64
2021/09/09 06:40:26;;;;;;;16.90;14.50;;;17.90;99.90;;;;;;5072047;28;20469;-67
2021/09/09 06:42:52;;;;;;;15.70;14.00;;;18.10;99.90;;;;;;5071487;28;20838;-64
2021/09/09 06:45:19;;;;;;;17.93;15.20;;;18.30;99.90;;;;;;5071747;28;20557;-66
2021/09/09 06:47:46;;;;;;;15.37;13.83;;;18.50;99.90;;;;;;5071909;28;20474;-66
2021/09/09 06:50:13;;;;;;;16.10;14.40;;;18.70;99.90;;;;;;5071212;28;20451;-66
2021/09/09 06:52:42;;;;;;;16.03;14.23;;;18.90;99.90;;;;;;5071278;28;20447;-66
2021/09/09 06:55:09;;;;;;;17.70;13.40;;;19.10;99.90;;;;;;5071293;28;20497;-65
2021/09/09 06:57:36;;;;;;;15.67;14.07;;;19.30;99.90;;;;;;5071493;28;20479;-66
2021/09/09 07:00:03;;;;;;;15.20;13.70;;;19.40;99.90;;;;;;5071387;28;20442;-66
2021/09/09 07:02:30;;;;;;;18.20;13.90;;;19.50;99.90;;;;;;5070730;28;20478;-66
2021/09/09 07:04:57;;;;;;;14.77;13.23;;;19.40;99.90;;;;;;5070864;28;20475;-64
2021/09/09 07:07:24;;;;;;;15.00;13.60;;;19.40;99.90;;;;;;5071009;28;20447;-66
2021/09/09 07:09:52;;;;;;;18.97;14.67;;;19.30;99.90;;;;;;5071352;28;20447;-65
2021/09/09 07:12:19;;;;;;;15.20;13.70;;;19.20;99.90;;;;;;5070202;28;20455;-65
2021/09/09 07:14:46;;;;;;;17.00;12.90;;;19.20;99.90;;;;;;5071208;28;20467;-65
2021/09/09 07:17:13;;;;;;;15.80;14.10;;;19.30;99.90;;;;;;5070872;28;20453;-66
2021/09/09 07:19:40;;;;;;;14.20;12.67;;;19.30;99.90;;;;;;5071158;28;20446;-73
2021/09/09 07:22:06;;;;;;;17.73;14.93;;;19.30;99.90;;;;;;5078466;28;20479;-65
2021/09/09 07:24:34;;;;;;;15.60;13.93;;;19.30;99.90;;;;;;5090459;28;20485;-65
2021/09/09 07:27:02;;;;;;;17.07;13.27;;;19.40;99.90;;;;;;5091090;28;20542;-65
2021/09/09 07:29:29;;;;;;;13.77;12.40;;;19.40;99.90;;;;;;5090889;28;20470;-64
2021/09/09 07:31:56;;;;;;;13.30;12.00;;;19.50;99.90;;;;;;5090497;28;20452;-65
2021/09/09 07:34:23;;;;;;;13.40;11.70;;;19.50;99.90;;;;;;5090675;28;20972;-65
2021/09/09 07:36:50;;;;;;;15.23;12.87;;;19.50;99.90;;;;;;5090783;28;20998;-65
2021/09/09 07:39:17;;;;;;;14.37;12.87;;;19.70;99.90;;;;;;5090898;28;20454;-65
2021/09/09 07:41:44;;;;;;;13.57;12.37;;;19.90;99.90;;;;;;5090188;28;20442;-65
2021/09/09 07:44:12;;;;;;;12.90;11.70;;;20.00;99.90;;;;;;5090730;28;20577;-65
2021/09/09 07:46:39;;;;;;;13.03;11.73;;;20.20;99.90;;;;;;5085761;28;20529;-64
2021/09/09 07:49:08;;;;;;;13.73;12.10;;;20.30;99.90;;;;;;5089084;28;20452;-64
2021/09/09 07:51:35;;;;;;;15.13;11.87;;;20.50;99.90;;;;;;5090821;28;20450;-65
2021/09/09 07:54:02;;;;;;;12.13;11.03;;;20.80;99.90;;;;;;5084666;28;20481;-65
2021/09/09 07:56:30;;;;;;;12.00;10.17;;;21.10;99.90;;;;;;5070419;28;20959;-64
2021/09/09 07:58:57;;;;;;;12.00;10.80;;;21.30;99.90;;;;;;5079339;28;20442;-65
2021/09/09 08:01:25;;;;;;;12.05;10.85;;;21.40;99.90;;;;;;5090059;28;20442;-65
2021/09/09 08:03:52;;;;;;;14.30;10.60;;;21.50;99.90;;;;;;5085557;28;20705;-66
2021/09/09 08:06:19;;;;;;;11.53;10.20;;;21.60;99.90;;;;;;5086171;28;20891;-66
2021/09/09 08:08:46;;;;;;;11.30;10.20;;;21.60;99.90;;;;;;5090166;28;20449;-65
2021/09/09 08:11:13;;;;;;;11.23;10.13;;;21.70;99.90;;;;;;5090382;28;20507;-65
2021/09/09 08:13:40;;;;;;;13.20;10.60;;;21.90;99.90;;;;;;5088545;28;20466;-66
2021/09/09 08:16:07;;;;;;;12.30;10.10;;;22.30;99.90;;;;;;5080882;28;20482;-65
2021/09/09 08:18:35;;;;;;;10.87;9.77;;;22.60;99.90;;;;;;5079223;28;20454;-71
2021/09/09 08:21:02;;;;;;;11.10;10.00;;;22.90;99.90;;;;;;5077940;28;20446;-66
2021/09/09 08:23:29;;;;;;;11.13;10.03;;;23.20;99.90;;;;;;5078929;28;20490;-66
2021/09/09 08:25:56;;;;;;;12.30;10.17;;;23.40;99.90;;;;;;5080140;28;20522;-66
2021/09/09 08:28:23;;;;;;;10.93;9.80;;;23.50;99.90;;;;;;5068232;28;20970;-66
2021/09/09 08:30:50;;;;;;;11.70;9.40;;;23.70;99.90;;;;;;5073550;28;20456;-67
2021/09/09 08:33:17;;;;;;;12.40;9.97;;;23.80;99.90;;;;;;5075207;28;20450;-67
2021/09/09 08:35:45;;;;;;;10.67;9.67;;;24.00;99.90;;;;;;5082306;28;20563;-66
2021/09/09 08:38:12;;;;;;;10.77;9.67;;;24.00;99.90;;;;;;5083106;28;20434;-67
2021/09/09 08:40:41;;;;;;;13.13;9.60;;;24.00;99.90;;;;;;5080560;28;20443;-65
2021/09/09 08:43:09;;;;;;;10.60;9.47;;;24.00;99.90;;;;;;5080958;28;20490;-65
2021/09/09 08:45:36;;;;;;;11.40;10.30;;;24.10;99.90;;;;;;5079066;28;21019;-64
2021/09/09 08:48:05;;;;;;;11.83;9.70;;;24.20;99.90;;;;;;5079651;28;20458;-65
2021/09/09 08:50:33;;;;;;;10.23;9.27;;;24.40;99.90;;;;;;5078035;28;20458;-66
2021/09/09 08:53:03;;;;;;;10.20;9.20;;;24.50;99.90;;;;;;5082875;28;20443;-64
2021/09/09 08:55:30;;;;;;;10.60;9.50;;;24.30;99.90;;;;;;5084086;28;20468;-65
2021/09/09 08:57:59;;;;;;;11.50;10.53;;;24.20;99.90;;;;;;5089297;28;20449;-64
2021/09/09 09:00:26;;;;;;;10.43;9.43;;;24.20;99.90;;;;;;5085189;28;20450;-64
2021/09/09 09:02:55;;;;;;;13.50;9.93;;;24.40;99.90;;;;;;5084913;28;20469;-64
2021/09/09 09:05:23;;;;;;;10.80;9.30;;;24.50;99.90;;;;;;5088079;28;20470;-64
2021/09/09 09:07:57;;;;;;;10.40;9.30;;;24.60;99.90;;;;;;5086914;28;20454;-65
2021/09/09 09:10:26;;;;;;;11.77;9.10;;;24.70;99.90;;;;;;5082529;28;20446;-64
2021/09/09 09:12:53;;;;;;;10.00;9.00;;;24.90;99.90;;;;;;5080858;28;20447;-65
2021/09/09 09:15:23;;;;;;;11.10;9.07;;;25.20;99.90;;;;;;5080256;28;20549;-65
2021/09/09 09:17:54;;;;;;;10.73;9.60;;;25.50;99.90;;;;;;5088488;28;20485;-65
2021/09/09 09:20:21;;;;;;;10.03;9.03;;;25.90;99.90;;;;;;5088303;28;20438;-65
2021/09/09 09:22:49;;;;;;;9.50;8.57;;;26.20;99.90;;;;;;5088049;28;20442;-65
2021/09/09 09:25:16;;;;;;;11.53;8.60;;;26.60;99.90;;;;;;5088756;28;20462;-64
2021/09/09 09:27:48;;;;;;;10.17;7.90;;;26.40;99.90;;;;;;5088740;28;20448;-65
2021/09/09 09:30:15;;;;;;;8.87;7.30;;;26.70;99.90;;;;;;5087871;28;20504;-65
2021/09/09 09:32:47;;;;;;;9.10;7.97;;;27.20;99.90;;;;;;5087838;28;20446;-65
2021/09/09 09:35:16;;;;;;;8.87;7.93;;;27.50;99.90;;;;;;5090416;28;20462;-65
2021/09/09 09:37:53;;;;;;;10.47;8.40;;;28.10;99.90;;;;;;5091966;28;20460;-65
2021/09/09 09:40:25;;;;;;;13.40;9.53;;;28.20;99.90;;;;;;5091796;28;20540;-65
2021/09/09 09:42:55;;;;;;;8.63;7.80;;;28.40;99.90;;;;;;5091424;28;20537;-65
2021/09/09 09:45:22;;;;;;;8.37;7.57;;;28.30;99.90;;;;;;5091994;28;20462;-65
2021/09/09 09:47:48;;;;;;;15.27;11.10;;;28.30;99.90;;;;;;5091453;28;20928;-65
2021/09/09 09:50:17;;;;;;;8.63;7.83;;;28.30;99.90;;;;;;5092150;28;20449;-65
2021/09/09 09:52:44;;;;;;;8.87;8.00;;;28.30;99.90;;;;;;5092002;28;20442;-65
2021/09/09 09:55:11;;;;;;;8.33;7.63;;;28.20;99.40;;;;;;5091569;28;20897;-65
2021/09/09 09:57:53;;;;;;;8.53;6.90;;;28.20;99.90;;;;;;5091874;28;20440;-65
2021/09/09 10:00:20;;;;;;;8.80;7.57;;;28.50;99.30;;;;;;5091751;28;20452;-65
2021/09/09 10:02:47;;;;;;;8.00;7.20;;;28.80;98.20;;;;;;5091481;28;20537;-65
2021/09/09 10:05:15;;;;;;;7.20;6.43;;;29.20;97.00;;;;;;5091488;28;20492;-65
2021/09/09 10:07:42;;;;;;;8.30;6.93;;;29.50;96.40;;;;;;5091805;28;20456;-65
2021/09/09 10:10:09;;;;;;;8.00;7.30;;;29.40;97.20;;;;;;5091543;28;20435;-65
2021/09/09 10:12:36;;;;;;;8.43;7.53;;;29.30;96.80;;;;;;5090479;28;20520;-66
2021/09/09 10:15:07;;;;;;;7.47;6.60;;;29.20;95.90;;;;;;5091865;28;20466;-65
2021/09/09 10:17:34;;;;;;;8.10;7.23;;;29.40;94.60;;;;;;5080819;28;20478;-66
2021/09/09 10:20:29;;;;;;;7.80;6.93;;;29.30;95.80;;;;;;5083631;28;20453;-67
2021/09/09 10:23:06;;;;;;;8.13;7.43;;;28.70;96.00;;;;;;5091179;28;20442;-66
2021/09/09 10:25:44;;;;;;;9.30;8.40;;;28.20;97.00;;;;;;5091052;28;21163;-66
2021/09/09 10:28:40;;;;;;;8.87;7.37;;;27.90;97.90;;;;;;5091093;28;20450;-67
2021/09/09 10:31:10;;;;;;;7.60;6.70;;;28.10;98.60;;;;;;5084445;28;20836;-66
2021/09/09 10:33:43;;;;;;;8.80;6.90;;;28.40;97.40;;;;;;5090631;28;20831;-66
2021/09/09 10:36:41;;;;;;;11.03;6.80;;;28.80;98.10;;;;;;5090978;28;20828;-66
2021/09/09 10:39:09;;;;;;;7.57;6.77;;;29.20;94.70;;;;;;5078702;28;20527;-66
2021/09/09 10:41:36;;;;;;;10.00;7.93;;;29.90;96.20;;;;;;5090847;28;20446;-66
2021/09/09 10:44:05;;;;;;;7.07;5.80;;;30.40;94.90;;;;;;5090706;28;20492;-66
2021/09/09 10:46:36;;;;;;;7.00;6.23;;;30.80;93.60;;;;;;5089919;28;20446;-66
2021/09/09 10:49:27;;;;;;;7.53;6.80;;;30.50;92.00;;;;;;5090298;28;21029;-66
2021/09/09 10:52:09;;;;;;;7.00;6.30;;;29.60;93.90;;;;;;5075067;28;21006;-66
2021/09/09 10:55:03;;;;;;;7.27;6.57;;;29.00;94.80;;;;;;5090315;28;20496;-66
2021/09/09 10:57:30;;;;;;;8.00;6.70;;;29.30;95.30;;;;;;5090634;28;20537;-66
2021/09/09 10:59:57;;;;;;;8.57;6.70;;;29.60;95.10;;;;;;5087269;28;20439;-66
2021/09/09 11:02:25;;;;;;;7.90;7.10;;;29.70;94.50;;;;;;5087210;28;20878;-66
2021/09/09 11:04:52;;;;;;;7.83;6.03;;;30.20;93.20;;;;;;5090731;28;20484;-66
2021/09/09 11:07:24;;;;;;;7.60;6.63;;;31.00;93.90;;;;;;5081047;28;20446;-66
2021/09/09 11:10:02;;;;;;;7.03;6.00;;;31.50;91.70;;;;;;5079000;28;20438;-65
2021/09/09 11:12:35;;;;;;;7.20;6.30;;;31.80;91.10;;;;;;5080478;28;20492;-66
2021/09/09 11:15:04;;;;;;;7.50;5.80;;;32.30;90.10;;;;;;5079856;28;20829;-66
2021/09/09 11:17:32;;;;;;;6.80;6.20;;;32.90;88.80;;;;;;5079577;28;20473;-66
2021/09/09 11:20:05;;;;;;;9.70;6.53;;;33.20;87.10;;;;;;5081759;28;20443;-66
2021/09/09 11:22:31;;;;;;;7.20;6.47;;;33.80;86.30;;;;;;5080879;28;20439;-65
2021/09/09 11:24:59;;;;;;;7.90;7.20;;;33.80;84.30;;;;;;5079055;28;20491;-65
2021/09/09 11:27:31;;;;;;;7.70;7.00;;;33.90;83.70;;;;;;5080508;28;20442;-65
2021/09/09 11:29:59;;;;;;;7.93;7.13;;;33.20;81.90;;;;;;5080705;28;20449;-65
2021/09/09 11:32:27;;;;;;;10.00;6.70;;;31.80;85.00;;;;;;5080689;28;20446;-65
2021/09/09 11:35:06;;;;;;;7.30;6.40;;;30.90;87.90;;;;;;5075470;28;21057;-64
2021/09/09 11:37:43;;;;;;;8.43;7.53;;;30.30;90.30;;;;;;5069066;28;20554;-64
2021/09/09 11:40:11;;;;;;;8.10;7.30;;;30.10;90.30;;;;;;5074444;28;20485;-64
2021/09/09 11:42:38;;;;;;;9.07;7.13;;;29.80;91.10;;;;;;5077167;28;20545;-65
2021/09/09 11:45:06;;;;;;;16.63;7.93;;;29.60;92.30;;;;;;5074460;28;20483;-65
2021/09/09 11:47:33;;;;;;;9.40;7.20;;;30.00;91.40;;;;;;5073148;28;20453;-66
2021/09/09 11:50:02;;;;;;;8.93;7.63;;;30.40;91.00;;;;;;5077369;28;20971;-66
2021/09/09 11:52:29;;;;;;;8.63;7.83;;;31.30;90.50;;;;;;5075609;28;20526;-66
2021/09/09 11:54:57;;;;;;;8.40;7.10;;;31.10;90.10;;;;;;5082690;28;20534;-66
2021/09/09 11:57:24;;;;;;;7.70;6.83;;;31.20;92.10;;;;;;5083510;28;20533;-66
2021/09/09 11:59:52;;;;;;;10.50;8.50;;;31.30;92.00;;;;;;5073035;28;20534;-67
2021/09/09 12:02:21;;;;;;;11.33;7.33;;;31.00;89.90;;;;;;5069770;28;20534;-64
2021/09/09 12:04:48;;;;;;;10.47;7.13;;;30.90;90.80;;;;;;5069568;28;20487;-65
2021/09/09 12:07:20;;;;;;;12.80;7.47;;;31.00;90.70;;;;;;5069716;28;20952;-65
2021/09/09 12:09:54;;;;;;;8.87;7.13;;;30.60;90.50;;;;;;5069854;28;20533;-64
2021/09/09 12:12:22;;;;;;;8.20;7.50;;;31.30;90.20;;;;;;5069402;28;20447;-64
2021/09/09 12:14:59;;;;;;;7.80;7.10;;;32.00;87.40;;;;;;5070111;28;20471;-63
2021/09/09 12:17:26;;;;;;;8.50;7.40;;;31.90;85.80;;;;;;5069758;28;20446;-64
2021/09/09 12:20:01;;;;;;;8.23;7.43;;;32.70;85.20;;;;;;5069894;28;20447;-64
2021/09/09 12:22:49;;;;;;;7.00;6.30;;;33.10;87.30;;;;;;5069259;28;20476;-64
2021/09/09 12:25:32;;;;;;;7.13;6.43;;;32.70;83.70;;;;;;5069829;28;20518;-64
2021/09/09 12:28:03;;;;;;;7.73;6.93;;;32.40;88.20;;;;;;5069892;28;20447;-64
2021/09/09 12:30:33;;;;;;;9.87;7.10;;;31.90;86.30;;;;;;5083828;28;20464;-65
2021/09/09 12:33:02;;;;;;;7.83;7.03;;;31.50;86.10;;;;;;5088440;28;20449;-64
2021/09/09 12:35:30;;;;;;;9.33;7.07;;;31.10;89.00;;;;;;5087282;28;20649;-64
2021/09/09 12:38:06;;;;;;;9.03;7.40;;;30.50;87.90;;;;;;5075548;28;20448;-65